createdAt,value
2024-02-08T04:32:15.681Z,1.17
2024-02-08T04:35:01.511Z,2.35
2024-02-08T04:37:47.342Z,3.78
2024-02-08T04:40:33.726Z,2.08
2024-02-08T05:06:41.391Z,2.28
2024-02-08T05:11:38.288Z,3.78
2024-02-08T05:14:06.088Z,2.90
2024-02-08T05:38:47.082Z,2.40
2024-02-08T05:41:18.673Z,3.35
2024-02-08T05:43:49.301Z,6.95
2024-02-08T05:46:26.806Z,5.47
2024-02-08T05:48:55.348Z,6.82
2024-02-08T05:51:23.644Z,7.85
2024-02-08T05:53:53.190Z,6.45
2024-02-08T05:56:23.115Z,5.10
2024-02-08T05:58:53.247Z,4.97
2024-02-08T06:03:49.690Z,3.15
2024-02-08T06:06:27.688Z,5.82
2024-02-08T06:11:24.836Z,2.78
2024-02-08T06:13:56.487Z,5.78
2024-02-08T06:16:46.790Z,4.18
2024-02-08T06:21:47.193Z,4.38
2024-02-08T06:39:59.396Z,3.42
2024-02-08T06:45:25.457Z,3.53
2024-02-08T06:48:01.814Z,7.72
2024-02-08T06:56:23.060Z,4.15
2024-02-08T07:04:39.841Z,5.60
2024-02-08T07:07:25.504Z,8.52
2024-02-08T07:12:56.677Z,8.68
2024-02-08T07:15:42.209Z,9.68
2024-02-08T07:18:28.098Z,10.50
2024-02-08T07:21:13.881Z,9.80
2024-02-08T07:26:44.938Z,7.85
2024-02-08T07:29:30.273Z,10.77
2024-02-08T07:32:15.820Z,10.35
2024-02-08T07:35:01.402Z,6.38
2024-02-08T07:37:29.144Z,6.72
2024-02-08T07:40:02.970Z,6.65
2024-02-08T07:42:30.807Z,7.32
2024-02-08T07:50:05.816Z,4.82
2024-02-08T07:52:39.750Z,5.00
2024-02-08T08:34:27.345Z,4.15
2024-02-08T08:39:51.358Z,9.93
2024-02-08T08:42:19.187Z,7.45
2024-02-08T09:44:01.503Z,7.00
2024-02-08T09:46:50.017Z,8.43
2024-02-08T09:49:19.746Z,10.00
2024-02-08T09:51:56.116Z,11.07
2024-02-08T12:49:35.750Z,11.07
2024-02-08T12:52:04.552Z,13.85
2024-02-08T12:54:34.612Z,14.75
2024-02-08T12:57:09.310Z,13.30
2024-02-08T12:59:37.886Z,14.27
2024-02-08T13:02:10.483Z,11.88
2024-02-08T13:04:45.413Z,14.13
2024-02-08T13:07:20.130Z,12.82
2024-02-08T13:09:47.945Z,14.73
2024-02-08T13:12:18.336Z,18.83
2024-02-08T13:15:07.683Z,14.25
2024-02-08T13:17:35.461Z,17.42
2024-02-08T13:20:14.525Z,11.57
2024-02-08T13:25:20.908Z,4.50
2024-02-08T13:27:51.543Z,6.30
2024-02-08T13:30:18.845Z,5.07
2024-02-08T13:32:53.849Z,7.97
2024-02-08T13:42:55.735Z,8.48
2024-02-08T13:45:27.390Z,8.40
2024-02-08T13:47:59.099Z,9.38
2024-02-08T13:50:31.998Z,7.82
2024-02-08T13:53:01.971Z,6.57
2024-02-08T14:00:31.683Z,11.48
2024-02-08T14:02:58.813Z,12.98
2024-02-08T14:10:29.270Z,3.70
2024-02-08T14:13:08.086Z,4.65
2024-02-08T14:15:39.661Z,8.57
2024-02-08T14:26:08.286Z,5.13
2024-02-08T14:28:43.768Z,10.52
2024-02-08T14:59:10.950Z,3.33
2024-02-08T15:01:41.048Z,8.25
2024-02-08T15:04:23.302Z,13.15
2024-02-08T15:07:15.156Z,12.63
2024-02-08T15:09:42.936Z,14.10
2024-02-08T15:15:07.351Z,10.10
2024-02-08T15:17:44.481Z,9.77
2024-02-08T15:20:30.578Z,7.25
2024-02-08T15:28:33.456Z,2.33
2024-02-08T15:33:59.325Z,1.40
2024-02-08T15:39:30.673Z,8.15
2024-02-08T15:42:03.009Z,3.92
2024-02-08T15:44:36.938Z,3.80
2024-02-08T15:47:14.100Z,5.43
2024-02-08T15:49:45.267Z,8.60
2024-02-08T15:52:16.623Z,10.82
2024-02-08T15:54:46.250Z,5.43
2024-02-08T15:57:14.644Z,7.80
2024-02-08T15:59:48.008Z,6.53
2024-02-08T16:02:18.747Z,6.00
2024-02-08T16:04:52.337Z,6.00
2024-02-08T16:07:28.749Z,12.50
2024-02-08T16:09:59.930Z,12.25
2024-02-08T16:15:09.194Z,7.82
2024-02-08T16:17:37.656Z,12.20
2024-02-08T16:20:24.690Z,20.08
2024-02-08T16:23:06.832Z,17.88
2024-02-08T16:25:46.373Z,15.20
2024-02-08T16:31:23.236Z,16.42
2024-02-08T16:33:56.181Z,19.97
2024-02-08T16:36:31.411Z,17.58
2024-02-08T16:39:15.772Z,15.85
2024-02-08T16:42:00.875Z,15.03
2024-02-08T16:44:32.110Z,19.55
2024-02-08T16:47:01.287Z,14.65
2024-02-08T16:49:31.889Z,13.38
2024-02-08T16:52:05.536Z,13.38
2024-02-08T16:54:36.256Z,11.35
2024-02-08T16:57:08.769Z,16.13
2024-02-08T16:59:50.159Z,12.75
2024-02-08T17:02:26.509Z,12.35
2024-02-08T17:05:10.750Z,14.75
2024-02-08T17:07:44.389Z,18.98
2024-02-08T17:10:13.987Z,18.70
2024-02-08T17:12:57.920Z,14.65
2024-02-08T17:18:25.583Z,15.88
2024-02-08T17:21:06.746Z,16.83
2024-02-08T17:23:44.392Z,10.95
2024-02-08T17:26:28.001Z,9.68
2024-02-08T17:29:21.294Z,13.68
2024-02-08T17:31:49.138Z,8.85
2024-02-08T17:34:23.471Z,14.82
2024-02-08T17:36:55.552Z,8.15
2024-02-08T17:39:26.555Z,15.77
2024-02-08T17:41:58.348Z,17.95
2024-02-08T17:44:31.359Z,16.40
2024-02-08T17:47:01.381Z,14.73
2024-02-08T17:49:31.247Z,12.65
2024-02-08T17:52:00.936Z,13.52
2024-02-08T17:54:33.235Z,6.22
2024-02-08T17:57:04.002Z,17.40
2024-02-08T17:59:31.518Z,3.42
2024-02-08T18:02:06.142Z,7.82
2024-02-08T18:04:38.090Z,16.98
2024-02-08T18:07:10.578Z,12.13
2024-02-08T18:09:41.184Z,9.35
2024-02-08T18:12:14.710Z,8.30
2024-02-08T18:14:42.806Z,18.63
2024-02-08T18:17:22.862Z,13.82
2024-02-08T18:19:50.460Z,9.90
2024-02-08T18:22:19.599Z,9.52
2024-02-08T18:24:49.843Z,5.28
2024-02-08T18:27:23.342Z,16.40
2024-02-08T18:29:52.440Z,8.85
2024-02-08T18:32:20.385Z,13.43
2024-02-08T18:34:50.830Z,10.93
2024-02-08T18:37:28.049Z,10.60
2024-02-08T18:39:56.211Z,19.42
2024-02-08T18:42:23.814Z,19.52
2024-02-08T18:44:51.480Z,10.60
2024-02-08T18:47:22.454Z,7.72
2024-02-08T18:49:50.712Z,13.02
2024-02-08T18:52:19.631Z,8.05
2024-02-08T18:54:49.101Z,10.68
2024-02-08T18:57:17.498Z,21.65
2024-02-08T18:59:46.574Z,16.48
2024-02-08T19:02:14.011Z,9.23
2024-02-08T19:04:45.922Z,9.85
2024-02-08T19:07:13.288Z,4.63
2024-02-08T19:09:41.871Z,6.53
2024-02-08T19:12:11.090Z,6.50
2024-02-08T19:14:38.379Z,13.10
2024-02-08T19:17:08.880Z,5.95
2024-02-08T19:22:13.754Z,1.70
2024-02-08T19:24:41.854Z,3.63
2024-02-08T19:27:08.882Z,7.45
2024-02-08T19:29:37.519Z,9.20
2024-02-08T19:32:08.683Z,4.55
2024-02-08T19:34:39.020Z,6.63
2024-02-08T19:37:07.776Z,5.95
2024-02-08T19:39:38.624Z,4.78
2024-02-08T19:42:09.114Z,5.72
2024-02-08T19:44:37.279Z,9.10
2024-02-08T19:47:22.498Z,8.45
2024-02-08T19:49:53.027Z,11.60
2024-02-08T19:52:22.391Z,10.80
2024-02-08T19:54:58.200Z,11.27
2024-02-08T19:57:34.436Z,6.13
2024-02-08T20:00:01.674Z,4.22
2024-02-08T20:02:29.473Z,8.23
2024-02-08T20:05:01.025Z,9.18
2024-02-08T20:07:40.579Z,11.95
2024-02-08T20:12:46.593Z,3.00
2024-02-08T20:17:47.114Z,6.53
2024-02-08T20:20:20.559Z,2.45
2024-02-08T20:22:53.344Z,11.35
2024-02-08T20:25:29.066Z,6.53
2024-02-08T20:27:59.937Z,4.43
2024-02-08T20:30:29.523Z,12.73
2024-02-08T20:33:02.489Z,2.72
2024-02-08T20:35:32.721Z,4.82
2024-02-08T20:38:01.323Z,3.55
2024-02-08T20:40:30.036Z,11.05
2024-02-08T20:43:00.550Z,11.30
2024-02-08T20:45:28.580Z,11.05
2024-02-08T20:50:23.012Z,8.57
2024-02-08T20:52:51.072Z,10.98
2024-02-08T20:55:25.522Z,11.20
2024-02-08T21:00:23.873Z,13.60
2024-02-08T21:02:54.344Z,7.53
2024-02-08T21:05:22.517Z,8.27
2024-02-08T21:07:50.810Z,2.50
2024-02-08T21:12:54.241Z,3.70
2024-02-08T21:15:24.407Z,11.95
2024-02-08T21:17:51.651Z,10.52
2024-02-08T21:20:19.082Z,5.10
2024-02-08T21:22:49.240Z,1.23
2024-02-08T21:25:21.384Z,3.78
2024-02-08T21:27:53.918Z,8.25
2024-02-08T21:30:22.163Z,5.18
2024-02-08T21:32:50.163Z,5.25
2024-02-08T21:35:18.257Z,9.57
2024-02-08T21:37:46.942Z,11.18
2024-02-08T21:40:15.407Z,3.00
2024-02-08T21:42:42.429Z,4.13
2024-02-08T21:45:13.770Z,8.85
2024-02-08T21:47:41.162Z,3.58
2024-02-08T21:50:08.920Z,5.43
2024-02-08T21:55:08.110Z,4.65
2024-02-08T21:57:35.688Z,7.65
2024-02-08T22:00:12.425Z,4.97
2024-02-08T22:02:43.730Z,2.90
2024-02-08T22:05:11.587Z,5.63
2024-02-08T22:07:40.040Z,4.75
2024-02-08T22:10:14.687Z,10.18
2024-02-08T22:12:48.007Z,10.60
2024-02-08T22:15:19.148Z,3.25
2024-02-08T22:17:53.148Z,8.60
2024-02-08T22:22:53.864Z,8.00
2024-02-08T22:25:22.722Z,10.13
2024-02-08T22:27:50.052Z,6.90
2024-02-08T22:32:48.108Z,6.47
2024-02-08T22:40:12.526Z,10.35
2024-02-08T22:42:40.244Z,9.55
2024-02-08T22:45:12.965Z,4.22
2024-02-08T22:47:43.735Z,5.35
2024-02-08T22:50:15.860Z,3.90
2024-02-08T22:55:25.626Z,4.75
2024-02-08T22:58:01.767Z,2.40
2024-02-08T23:03:09.288Z,6.18
2024-02-08T23:08:13.004Z,2.45
2024-02-08T23:10:40.847Z,5.32
2024-02-08T23:13:12.236Z,1.92
2024-02-08T23:15:46.809Z,4.05
2024-02-08T23:18:20.534Z,4.55
2024-02-08T23:20:48.659Z,4.65
2024-02-08T23:23:15.743Z,3.33
2024-02-08T23:25:42.790Z,3.60
2024-02-08T23:28:12.706Z,4.05
2024-02-08T23:30:45.573Z,10.20
2024-02-08T23:33:14.809Z,7.13
2024-02-08T23:35:41.947Z,2.80
2024-02-08T23:38:09.098Z,8.88
2024-02-08T23:45:40.584Z,5.82
2024-02-08T23:48:10.078Z,3.00
2024-02-08T23:50:37.711Z,4.90
2024-02-08T23:53:05.640Z,1.65
2024-02-08T23:55:36.590Z,9.90
2024-02-08T23:58:05.614Z,7.30
